Pensacola Regional Airport


Codes: KPNS/PNS
Name: Pensacola Regional Airport
City: Pensacola
Country: United States
Elevation: 121 ft.
Wikipedia:

Photos at Pensacola Regional Airport


   Photos courtesy of SpottingLog. You can add your own sightings and photos by signing up for a free trial today.



149563, 06-Jun-2024
© Jim Donten

N5423E, 05-Jun-2024
© Jim Donten

N277WW, 05-Jun-2024
© Jim Donten

N632NN, 05-Jun-2024
© Jim Donten

N8507C, 05-Jun-2024
© Jim Donten

N62354, 05-Jun-2024
© Jim Donten

N97681, 05-Jun-2024
© Jim Donten

N9786L, 05-Jun-2024
© Jim Donten

N172UP, 05-Jun-2024
© Jim Donten

N409SV, 05-Jun-2024
© Jim Donten


Weather at Pensacola Regional Airport


Time (UTC)DescriptionTempratureWindCloud coverageVisibilityPressureHumidity
13-Jun-2024 03:00Clear Sky29°C7 mph, W10%10000m1011hPa61%
13-Jun-2024 06:00Few Clouds27°C4 mph, NW21%10000m1012hPa67%
13-Jun-2024 09:00Few Clouds24°C4 mph, N14%10000m1011hPa62%
13-Jun-2024 12:00Scattered Clouds25°C4 mph, N39%10000m1013hPa61%
13-Jun-2024 15:00Scattered Clouds31°C4 mph, NE44%10000m1013hPa47%
13-Jun-2024 18:00Scattered Clouds34°C4 mph, SE28%10000m1012hPa40%
13-Jun-2024 21:00Broken Clouds31°C7 mph, S75%10000m1012hPa54%
14-Jun-2024 00:00Broken Clouds30°C9 mph, SE60%10000m1012hPa61%
14-Jun-2024 03:00Clear Sky27°C4 mph, SE0%10000m1013hPa75%
14-Jun-2024 06:00Clear Sky27°C2 mph, NE6%10000m1013hPa76%
14-Jun-2024 09:00Clear Sky26°C2 mph, NE1%10000m1013hPa76%
14-Jun-2024 12:00Clear Sky26°C4 mph, NE0%10000m1014hPa64%
14-Jun-2024 15:00Clear Sky32°C7 mph, NE0%10000m1014hPa48%
14-Jun-2024 18:00Few Clouds34°C4 mph, SE11%10000m1013hPa41%
14-Jun-2024 21:00Overcast Clouds31°C9 mph, SW93%10000m1012hPa53%
15-Jun-2024 00:00Broken Clouds31°C7 mph, SW67%10000m1012hPa50%
15-Jun-2024 03:00Overcast Clouds29°C4 mph, SW87%10000m1013hPa59%
15-Jun-2024 06:00Broken Clouds28°C4 mph, W62%10000m1013hPa64%
15-Jun-2024 09:00Scattered Clouds27°C4 mph, NW49%10000m1012hPa67%
15-Jun-2024 12:00Few Clouds27°C4 mph, NW24%10000m1014hPa69%
15-Jun-2024 15:00Clear Sky33°C4 mph, E0%10000m1014hPa47%
15-Jun-2024 18:00Clear Sky35°C9 mph, SE0%10000m1013hPa36%
15-Jun-2024 21:00Clear Sky34°C11 mph, S0%10000m1012hPa41%
16-Jun-2024 00:00Clear Sky31°C9 mph, SW0%10000m1013hPa52%
16-Jun-2024 03:00Scattered Clouds28°C4 mph, SW35%10000m1014hPa66%
16-Jun-2024 06:00Scattered Clouds28°C4 mph, SW31%10000m1014hPa73%
16-Jun-2024 09:00Few Clouds27°C2 mph, SW21%10000m1014hPa77%
16-Jun-2024 12:00Few Clouds28°C0 mph, NE11%10000m1015hPa75%
16-Jun-2024 15:00Clear Sky32°C7 mph, SE0%10000m1016hPa54%
16-Jun-2024 18:00Clear Sky32°C11 mph, SE3%10000m1016hPa51%
16-Jun-2024 21:00Overcast Clouds32°C11 mph, S100%10000m1015hPa55%
17-Jun-2024 00:00Light Rain29°C9 mph, SE92%10000m1016hPa66%
17-Jun-2024 03:00Overcast Clouds27°C2 mph, S94%10000m1017hPa77%
17-Jun-2024 06:00Broken Clouds26°C2 mph, NE80%10000m1016hPa82%
17-Jun-2024 09:00Light Rain26°C4 mph, NE100%10000m1016hPa84%
17-Jun-2024 12:00Overcast Clouds26°C9 mph, NE100%10000m1016hPa74%
17-Jun-2024 15:00Light Rain30°C11 mph, SE100%10000m1017hPa65%
17-Jun-2024 18:00Light Rain31°C13 mph, SE100%10000m1017hPa57%
17-Jun-2024 21:00Overcast Clouds31°C13 mph, SE98%10000m1015hPa56%
18-Jun-2024 00:00Overcast Clouds28°C9 mph, SE99%10000m1015hPa68%